首页
METAR-TAF:

METAR-TAF

机场 :

赫维什-巴拉顿国际机场

黑維茲, 匈牙利

纬度: 46-41-11N, 经度: 017-09-33E, 海拔: 124米

当前天气观测

该预报发布于53分钟前的05:15 UTC
静风
温度 4°C
湿度 75%
气压 1023 hPa
能见度10公里或以上
1500米以下无云,无积雨云

METAR: LHSM 230515Z AUTO 00000KT CAVOK 04/M00 Q1023

时间: 07:08 (06:08 UTC)

预报

该预报发布于18小时和53分钟前的11:15 UTC
预报有效从22日的 12点(UTC)到 22日的 21点(UTC)
风速12节,风向西南
能见度10公里或以上
1500米以下无云,无积雨云
成为
从 22日的 14点(UTC)到 22日的 17点(UTC)
风速6节,风向西南

TAF: LHSM 221115Z 2212/2221 23012KT CAVOK BECMG 2214/2217 23006KT

超过4000个机场的气象观测和天气预报(METAR&TAF报告)。

可查询的气象台以黄色和红色小点在地图上表示。

将鼠标移到小点上方,可查看气象台名称。

然后点击查看天气观测和预报。

如需切换地图:点击带黑十字的绿色按钮放大地图;点击带横线的绿色按钮缩小地图;或者点击绿色箭头查看邻近地区的地图。


METAR-TAF: